Time;durP1;ratioP1;P1;durP2;ratioP2;P2;SDS_P1;SDS_P2;PMS_P1;PMS_P2;Temp;Humidity;BMP_temperature;BMP_pressure;BME280_temperature;BME280_humidity;BME280_pressure;Samples;Min_cycle;Max_cycle;Signal;HPM_P1;HPM_P2
2022/11/14 00:00:04;;;;;;;21.48;9.15;;;;;;;;;;1044603;28;20027;-76
2022/11/14 00:00:35;;;;;;;16.17;7.57;;;;;;;;;;1044251;28;20025;-76
2022/11/14 00:01:07;;;;;;;23.75;8.52;;;;;;;;;;1044687;28;20013;-76
2022/11/14 00:01:38;;;;;;;19.05;9.18;;;;;;;;;;1044055;28;20025;-76
2022/11/14 00:02:09;;;;;;;22.50;8.65;;;;;;;;;;1044371;28;20024;-76
2022/11/14 00:02:39;;;;;;;18.67;9.52;;;;;;;;;;1044258;28;20025;-76
2022/11/14 00:03:10;;;;;;;22.70;9.63;;;;;;;;;;1044798;28;20040;-76
2022/11/14 00:03:41;;;;;;;25.13;9.70;;;;;;;;;;1044767;28;20029;-76
2022/11/14 00:04:12;;;;;;;22.15;9.13;;;;;;;;;;1044381;28;20104;-76
2022/11/14 00:04:45;;;;;;;23.83;9.18;;;;;;;;;;1044385;28;20024;-76
2022/11/14 00:05:16;;;;;;;28.63;11.02;;;;;;;;;;1044323;28;20031;-76
2022/11/14 00:05:47;;;;;;;24.00;10.23;;;;;;;;;;1044268;28;20021;-76
2022/11/14 00:06:18;;;;;;;22.98;8.75;;;;;;;;;;1044273;28;20036;-76
2022/11/14 00:06:48;;;;;;;22.23;10.20;;;;;;;;;;1043922;28;20029;-76
2022/11/14 00:07:19;;;;;;;21.25;10.15;;;;;;;;;;1044794;28;20052;-76
2022/11/14 00:07:49;;;;;;;27.02;11.68;;;;;;;;;;1044154;28;20040;-76
2022/11/14 00:08:24;;;;;;;27.98;12.65;;;;;;;;;;1045094;28;20028;-76
2022/11/14 00:08:54;;;;;;;34.10;11.65;;;;;;;;;;1041994;28;20028;-76
2022/11/14 00:09:26;;;;;;;26.00;13.57;;;;;;;;;;1042301;28;20040;-76
2022/11/14 00:09:56;;;;;;;28.73;12.77;;;;;;;;;;1042828;28;20013;-76
2022/11/14 00:10:27;;;;;;;30.90;12.50;;;;;;;;;;1039730;28;20597;-76
2022/11/14 00:10:58;;;;;;;30.00;12.02;;;;;;;;;;1032290;28;20399;-76
2022/11/14 00:11:28;;;;;;;25.08;12.93;;;;;;;;;;1036092;28;20398;-76
2022/11/14 00:11:59;;;;;;;30.33;15.20;;;;;;;;;;1035782;28;20026;-76
2022/11/14 00:12:30;;;;;;;26.88;11.98;;;;;;;;;;1041202;28;20052;-76
2022/11/14 00:13:01;;;;;;;26.17;13.07;;;;;;;;;;1044384;28;20080;-76
2022/11/14 00:13:32;;;;;;;28.83;12.60;;;;;;;;;;1041552;28;20021;-76
2022/11/14 00:14:03;;;;;;;22.25;12.32;;;;;;;;;;1039776;28;20071;-76
2022/11/14 00:14:34;;;;;;;33.60;11.05;;;;;;;;;;1040161;28;20499;-76
2022/11/14 00:15:05;;;;;;;23.40;12.35;;;;;;;;;;1040006;28;20477;-76
2022/11/14 00:15:35;;;;;;;27.00;11.77;;;;;;;;;;1040400;28;20140;-76
2022/11/14 00:16:06;;;;;;;37.17;11.90;;;;;;;;;;1040298;28;20026;-76
2022/11/14 00:16:37;;;;;;;28.98;12.60;;;;;;;;;;1044189;28;20025;-76
2022/11/14 00:17:07;;;;;;;26.02;12.07;;;;;;;;;;1044084;28;20016;-76
2022/11/14 00:17:38;;;;;;;31.08;12.30;;;;;;;;;;1042659;28;20440;-76
2022/11/14 00:18:09;;;;;;;30.40;13.18;;;;;;;;;;1041963;28;20108;-76
2022/11/14 00:18:39;;;;;;;23.13;10.18;;;;;;;;;;1041802;28;20020;-76
2022/11/14 00:19:10;;;;;;;25.98;11.98;;;;;;;;;;1044400;28;20025;-76
2022/11/14 00:19:41;;;;;;;30.80;11.73;;;;;;;;;;1040628;28;20064;-76
2022/11/14 00:20:12;;;;;;;28.40;11.38;;;;;;;;;;1042191;28;20096;-76
2022/11/14 00:20:43;;;;;;;29.80;14.82;;;;;;;;;;1042191;28;20025;-76
2022/11/14 00:21:13;;;;;;;27.13;12.77;;;;;;;;;;1041979;28;20025;-76
2022/11/14 00:21:44;;;;;;;26.20;14.43;;;;;;;;;;1043685;28;20032;-76
2022/11/14 00:22:15;;;;;;;30.23;13.40;;;;;;;;;;1040332;28;20472;-76
2022/11/14 00:22:45;;;;;;;35.88;14.80;;;;;;;;;;1035661;28;20034;-76
2022/11/14 00:23:16;;;;;;;32.50;13.45;;;;;;;;;;1035882;28;20062;-76
2022/11/14 00:23:46;;;;;;;35.38;13.38;;;;;;;;;;1036515;28;20116;-76
2022/11/14 00:24:17;;;;;;;29.40;13.68;;;;;;;;;;1036448;28;20022;-76
2022/11/14 00:24:48;;;;;;;32.47;12.45;;;;;;;;;;1039625;28;20059;-76
2022/11/14 00:25:19;;;;;;;27.17;10.02;;;;;;;;;;1044562;28;20575;-76
2022/11/14 00:25:50;;;;;;;38.75;13.80;;;;;;;;;;1040140;28;20057;-76
2022/11/14 00:26:20;;;;;;;31.88;13.95;;;;;;;;;;1039910;28;20137;-76
2022/11/14 00:26:51;;;;;;;46.80;14.75;;;;;;;;;;1038982;28;20432;-76
2022/11/14 00:27:21;;;;;;;37.97;14.43;;;;;;;;;;1040074;28;20487;-76
2022/11/14 00:27:52;;;;;;;31.85;13.95;;;;;;;;;;1040243;28;20488;-76
2022/11/14 00:28:22;;;;;;;37.47;16.05;;;;;;;;;;1036519;28;20018;-76
2022/11/14 00:28:54;;;;;;;28.50;12.98;;;;;;;;;;1036348;28;20029;-76
2022/11/14 00:29:24;;;;;;;36.03;14.43;;;;;;;;;;1036075;28;20041;-76
2022/11/14 00:29:55;;;;;;;31.50;14.13;;;;;;;;;;1032629;28;20033;-76
2022/11/14 00:30:26;;;;;;;45.05;15.30;;;;;;;;;;1038903;28;20033;-76
2022/11/14 00:30:56;;;;;;;28.52;13.10;;;;;;;;;;1040938;28;20104;-76
2022/11/14 00:31:28;;;;;;;32.40;16.42;;;;;;;;;;1044616;28;20025;-76
2022/11/14 00:31:59;;;;;;;33.90;13.30;;;;;;;;;;1044152;28;20071;-77
2022/11/14 00:32:30;;;;;;;45.72;15.45;;;;;;;;;;1044262;28;20047;-77
2022/11/14 00:33:01;;;;;;;43.28;16.48;;;;;;;;;;1044513;28;20024;-77
2022/11/14 00:33:31;;;;;;;27.33;14.05;;;;;;;;;;1044945;28;20017;-77
2022/11/14 00:34:02;;;;;;;26.17;12.95;;;;;;;;;;1044325;28;20029;-77
2022/11/14 00:34:33;;;;;;;38.90;14.77;;;;;;;;;;1044704;28;20024;-77
2022/11/14 00:35:04;;;;;;;31.65;15.05;;;;;;;;;;1043354;28;20508;-77
2022/11/14 00:35:34;;;;;;;37.83;14.77;;;;;;;;;;1041860;28;20022;-77
2022/11/14 00:36:05;;;;;;;37.17;16.30;;;;;;;;;;1037583;28;20033;-76
2022/11/14 00:36:36;;;;;;;38.83;16.92;;;;;;;;;;1037019;28;20021;-76
2022/11/14 00:37:06;;;;;;;27.13;15.05;;;;;;;;;;1040470;28;20027;-76
2022/11/14 00:37:37;;;;;;;32.40;15.65;;;;;;;;;;1040318;28;20457;-76
2022/11/14 00:38:08;;;;;;;37.13;17.17;;;;;;;;;;1043902;28;20139;-76
2022/11/14 00:38:40;;;;;;;37.30;15.45;;;;;;;;;;1044579;28;20539;-76
2022/11/14 00:39:11;;;;;;;32.13;16.80;;;;;;;;;;1041546;28;20732;-76
2022/11/14 00:39:43;;;;;;;29.55;13.93;;;;;;;;;;1044866;28;20021;-76
2022/11/14 00:40:14;;;;;;;34.83;15.35;;;;;;;;;;1040531;28;20021;-76
2022/11/14 00:40:45;;;;;;;42.00;15.50;;;;;;;;;;1042380;28;20040;-76
2022/11/14 00:41:16;;;;;;;30.33;14.65;;;;;;;;;;1043692;28;20088;-76
2022/11/14 00:41:47;;;;;;;39.92;13.52;;;;;;;;;;1040960;28;20017;-76
2022/11/14 00:42:18;;;;;;;25.50;14.65;;;;;;;;;;1040284;28;20032;-76
2022/11/14 00:42:48;;;;;;;38.53;15.10;;;;;;;;;;1039812;28;20029;-76
2022/11/14 00:43:19;;;;;;;30.60;14.70;;;;;;;;;;1035970;28;20390;-76
2022/11/14 00:43:50;;;;;;;38.20;15.38;;;;;;;;;;1036087;28;20026;-76
2022/11/14 00:44:20;;;;;;;33.08;13.80;;;;;;;;;;1035108;28;20465;-76
2022/11/14 00:44:51;;;;;;;32.85;15.80;;;;;;;;;;1035468;28;20036;-76
2022/11/14 00:45:22;;;;;;;28.77;15.98;;;;;;;;;;1040616;28;20028;-76
2022/11/14 00:45:53;;;;;;;35.67;16.08;;;;;;;;;;1043020;28;20024;-76
2022/11/14 00:46:23;;;;;;;34.33;15.68;;;;;;;;;;1044035;28;20032;-76
2022/11/14 00:46:54;;;;;;;30.33;13.80;;;;;;;;;;1044525;28;20029;-76
2022/11/14 00:47:24;;;;;;;40.53;16.58;;;;;;;;;;1045835;28;20099;-76
2022/11/14 00:47:55;;;;;;;33.38;14.43;;;;;;;;;;1042569;28;20047;-76
2022/11/14 00:48:26;;;;;;;32.35;14.23;;;;;;;;;;1041891;28;20026;-76
2022/11/14 00:48:57;;;;;;;33.17;15.18;;;;;;;;;;1044115;28;20017;-76
2022/11/14 00:49:27;;;;;;;32.67;13.65;;;;;;;;;;1042525;28;20416;-76
2022/11/14 00:49:59;;;;;;;34.72;14.32;;;;;;;;;;1043487;28;20040;-76
2022/11/14 00:50:30;;;;;;;40.15;15.93;;;;;;;;;;1042161;28;20040;-76
2022/11/14 00:51:00;;;;;;;34.10;16.33;;;;;;;;;;1042051;28;20021;-76
2022/11/14 00:51:31;;;;;;;38.83;15.82;;;;;;;;;;1042676;28;20033;-76
2022/11/14 00:52:02;;;;;;;32.25;14.57;;;;;;;;;;1044376;28;20043;-76
2022/11/14 00:52:32;;;;;;;28.77;12.60;;;;;;;;;;1043040;28;20063;-76
2022/11/14 00:53:03;;;;;;;29.83;12.65;;;;;;;;;;1044039;28;20031;-76
2022/11/14 00:53:34;;;;;;;23.58;11.60;;;;;;;;;;1043996;28;20099;-77
2022/11/14 00:54:05;;;;;;;37.72;14.02;;;;;;;;;;1043989;28;20508;-77
2022/11/14 00:54:36;;;;;;;26.00;11.82;;;;;;;;;;1041316;28;20084;-77
2022/11/14 00:55:07;;;;;;;30.08;13.40;;;;;;;;;;1041272;28;20084;-77
2022/11/14 00:55:38;;;;;;;33.72;13.80;;;;;;;;;;1042907;28;20378;-76
2022/11/14 00:56:08;;;;;;;28.20;12.88;;;;;;;;;;1041847;28;20385;-76
2022/11/14 00:56:39;;;;;;;34.13;14.02;;;;;;;;;;1039066;28;20041;-76
2022/11/14 00:57:10;;;;;;;30.45;13.60;;;;;;;;;;1034056;28;20069;-76
2022/11/14 00:57:41;;;;;;;27.05;12.20;;;;;;;;;;1035940;28;20030;-76
2022/11/14 00:58:11;;;;;;;30.65;12.98;;;;;;;;;;1040390;28;20068;-77
2022/11/14 00:58:42;;;;;;;33.15;13.13;;;;;;;;;;1039610;28;20497;-77
2022/11/14 00:59:13;;;;;;;28.65;12.63;;;;;;;;;;1039954;28;20107;-77
2022/11/14 00:59:43;;;;;;;18.52;11.48;;;;;;;;;;1039875;28;20032;-76
2022/11/14 01:00:14;;;;;;;30.15;13.32;;;;;;;;;;1039950;28;20029;-76
2022/11/14 01:00:45;;;;;;;29.23;14.02;;;;;;;;;;1039560;28;20025;-76
2022/11/14 01:01:15;;;;;;;42.22;12.63;;;;;;;;;;1044252;28;20021;-76
2022/11/14 01:01:46;;;;;;;17.10;10.93;;;;;;;;;;1044078;28;20032;-76
2022/11/14 01:02:17;;;;;;;30.35;12.85;;;;;;;;;;1044856;28;20442;-76
2022/11/14 01:02:48;;;;;;;25.52;12.63;;;;;;;;;;1042471;28;20117;-76
2022/11/14 01:03:19;;;;;;;24.15;12.68;;;;;;;;;;1040665;28;20021;-76
2022/11/14 01:03:50;;;;;;;27.20;13.13;;;;;;;;;;1041944;28;20476;-76
2022/11/14 01:04:20;;;;;;;27.25;12.65;;;;;;;;;;1041236;28;20068;-76
2022/11/14 01:04:51;;;;;;;28.08;14.15;;;;;;;;;;1039711;28;20032;-76
2022/11/14 01:05:23;;;;;;;29.25;12.50;;;;;;;;;;1036459;28;20045;-76
2022/11/14 01:05:53;;;;;;;26.08;12.75;;;;;;;;;;1036059;28;20022;-76
2022/11/14 01:06:24;;;;;;;34.15;14.98;;;;;;;;;;1040378;28;20385;-76
2022/11/14 01:06:55;;;;;;;32.20;12.68;;;;;;;;;;1044204;28;20020;-76
2022/11/14 01:07:25;;;;;;;27.02;13.15;;;;;;;;;;1044084;28;20031;-76
2022/11/14 01:07:56;;;;;;;35.28;12.98;;;;;;;;;;1044074;28;20056;-76
2022/11/14 01:08:27;;;;;;;33.83;14.35;;;;;;;;;;1044177;28;20115;-76
2022/11/14 01:08:58;;;;;;;41.78;14.07;;;;;;;;;;1042320;28;20021;-75
2022/11/14 01:09:29;;;;;;;38.15;13.15;;;;;;;;;;1038526;28;20025;-75
2022/11/14 01:09:59;;;;;;;32.42;12.50;;;;;;;;;;1040334;28;20477;-75
2022/11/14 01:10:30;;;;;;;26.10;12.88;;;;;;;;;;1039930;28;20040;-76
2022/11/14 01:11:07;;;;;;;36.13;13.52;;;;;;;;;;1044270;28;20021;-76
2022/11/14 01:11:38;;;;;;;27.23;12.95;;;;;;;;;;1043602;28;20021;-76
2022/11/14 01:12:08;;;;;;;26.73;13.70;;;;;;;;;;1043840;28;20374;-76
2022/11/14 01:12:39;;;;;;;36.50;14.73;;;;;;;;;;1043731;28;20029;-77
2022/11/14 01:13:10;;;;;;;23.88;14.38;;;;;;;;;;1041802;28;20017;-78
2022/11/14 01:13:40;;;;;;;29.35;13.45;;;;;;;;;;1040877;28;20090;-75
2022/11/14 01:14:11;;;;;;;28.15;13.57;;;;;;;;;;1043630;28;20024;-75
2022/11/14 01:14:42;;;;;;;36.22;13.13;;;;;;;;;;1042719;28;20027;-77
2022/11/14 01:15:12;;;;;;;30.08;13.85;;;;;;;;;;1037359;28;20026;-77
2022/11/14 01:15:44;;;;;;;30.77;13.07;;;;;;;;;;1035755;28;20038;-77
2022/11/14 01:16:15;;;;;;;33.65;13.88;;;;;;;;;;1035559;28;20017;-77
2022/11/14 01:16:46;;;;;;;27.92;13.27;;;;;;;;;;1035908;28;20037;-77
2022/11/14 01:17:16;;;;;;;31.50;15.70;;;;;;;;;;1039972;28;20036;-77
2022/11/14 01:17:47;;;;;;;27.80;13.55;;;;;;;;;;1042214;28;20056;-77
2022/11/14 01:18:19;;;;;;;26.48;12.02;;;;;;;;;;1041031;28;20528;-77
2022/11/14 01:18:49;;;;;;;36.38;12.38;;;;;;;;;;1039119;28;20025;-77
2022/11/14 01:19:20;;;;;;;39.25;14.05;;;;;;;;;;1039999;28;20017;-77
2022/11/14 01:19:50;;;;;;;30.15;13.00;;;;;;;;;;1039608;28;20029;-77
2022/11/14 01:20:21;;;;;;;35.10;14.00;;;;;;;;;;1043560;28;20033;-77
2022/11/14 01:20:52;;;;;;;30.15;13.15;;;;;;;;;;1043565;28;20096;-77
2022/11/14 01:21:22;;;;;;;27.02;13.38;;;;;;;;;;1043747;28;20489;-77
2022/11/14 01:21:53;;;;;;;26.52;14.43;;;;;;;;;;1043153;28;20028;-77
2022/11/14 01:22:24;;;;;;;31.15;13.95;;;;;;;;;;1040703;28;20472;-77
2022/11/14 01:22:54;;;;;;;27.30;13.18;;;;;;;;;;1040902;28;20021;-78
2022/11/14 01:23:25;;;;;;;29.02;13.80;;;;;;;;;;1040806;28;20123;-78
2022/11/14 01:23:56;;;;;;;23.52;11.38;;;;;;;;;;1039293;28;20545;-79
2022/11/14 01:24:27;;;;;;;22.63;12.75;;;;;;;;;;1043047;28;20029;-79
2022/11/14 01:24:58;;;;;;;34.63;13.55;;;;;;;;;;1041069;28;21227;-78
2022/11/14 01:25:28;;;;;;;34.90;13.70;;;;;;;;;;1043144;28;20404;-78
2022/11/14 01:26:07;;;;;;;25.42;12.88;;;;;;;;;;1042713;28;20021;-78
2022/11/14 01:26:38;;;;;;;27.27;13.37;;;;;;;;;;1042479;28;20034;-79
2022/11/14 01:27:09;;;;;;;27.52;13.60;;;;;;;;;;1039573;28;20351;-78
2022/11/14 01:27:39;;;;;;;30.60;15.02;;;;;;;;;;1042778;28;20028;-78
2022/11/14 01:28:11;;;;;;;25.55;11.60;;;;;;;;;;1043560;28;20036;-77
2022/11/14 01:28:42;;;;;;;25.30;13.40;;;;;;;;;;1043568;28;20369;-77
2022/11/14 01:29:13;;;;;;;34.03;14.20;;;;;;;;;;1042587;28;20029;-79
2022/11/14 01:29:43;;;;;;;29.95;13.13;;;;;;;;;;1043513;28;20124;-76
2022/11/14 01:30:14;;;;;;;26.48;12.85;;;;;;;;;;1042557;28;20033;-81
2022/11/14 01:30:45;;;;;;;31.50;12.38;;;;;;;;;;1042142;28;20025;-79
2022/11/14 01:31:17;;;;;;;32.38;12.27;;;;;;;;;;1042935;28;20076;-76
2022/11/14 01:31:48;;;;;;;36.30;13.20;;;;;;;;;;1042538;28;20108;-76
2022/11/14 01:32:19;;;;;;;27.60;11.32;;;;;;;;;;1042167;28;20027;-76
2022/11/14 01:32:50;;;;;;;29.20;13.52;;;;;;;;;;1042001;28;20056;-75
2022/11/14 01:33:21;;;;;;;26.30;11.75;;;;;;;;;;1036709;28;20084;-75
2022/11/14 01:33:53;;;;;;;35.40;12.00;;;;;;;;;;1033708;28;20034;-75
2022/11/14 01:34:25;;;;;;;25.08;12.55;;;;;;;;;;1035327;28;20025;-75
2022/11/14 01:34:56;;;;;;;21.00;10.68;;;;;;;;;;1039540;28;20029;-75
2022/11/14 01:35:27;;;;;;;32.10;12.75;;;;;;;;;;1040906;28;20044;-75
2022/11/14 01:35:59;;;;;;;24.33;10.98;;;;;;;;;;1043080;28;20112;-76
2022/11/14 01:36:29;;;;;;;31.65;11.23;;;;;;;;;;1042013;28;20029;-76
2022/11/14 01:37:00;;;;;;;33.55;11.68;;;;;;;;;;1043026;28;20092;-76
2022/11/14 01:37:31;;;;;;;25.15;11.55;;;;;;;;;;1037520;28;20025;-75
2022/11/14 01:38:02;;;;;;;20.10;11.48;;;;;;;;;;1038978;28;20029;-75
2022/11/14 01:38:32;;;;;;;40.20;11.73;;;;;;;;;;1042427;28;20025;-76
2022/11/14 01:39:04;;;;;;;25.98;12.35;;;;;;;;;;1042705;28;20031;-76
2022/11/14 01:39:37;;;;;;;40.08;11.25;;;;;;;;;;1042074;28;20021;-75
2022/11/14 01:40:08;;;;;;;30.42;10.77;;;;;;;;;;1043256;28;20508;-75
2022/11/14 01:40:44;;;;;;;30.70;11.95;;;;;;;;;;1042671;28;20021;-77
2022/11/14 01:41:15;;;;;;;28.73;12.70;;;;;;;;;;1039872;28;20029;-76
2022/11/14 01:41:45;;;;;;;24.77;12.85;;;;;;;;;;1036895;28;20156;-76
2022/11/14 01:42:16;;;;;;;31.88;12.75;;;;;;;;;;1042059;28;20585;-77
2022/11/14 01:43:05;;;;;;;26.80;11.45;;;;;;;;;;1041724;28;20092;-76
2022/11/14 01:43:39;;;;;;;24.92;11.02;;;;;;;;;;1045014;28;20074;-75
2022/11/14 01:44:15;;;;;;;27.83;11.43;;;;;;;;;;1041607;28;20036;-76
2022/11/14 01:44:47;;;;;;;27.25;12.07;;;;;;;;;;1043137;28;20100;-76
2022/11/14 01:45:36;;;;;;;37.95;11.30;;;;;;;;;;1042048;28;20028;-76
2022/11/14 01:46:13;;;;;;;28.48;11.82;;;;;;;;;;1042017;28;20554;-76
2022/11/14 01:46:51;;;;;;;20.08;9.60;;;;;;;;;;1042488;28;20086;-76
2022/11/14 01:47:24;;;;;;;24.45;9.77;;;;;;;;;;1043341;28;20029;-76
2022/11/14 01:47:55;;;;;;;24.70;9.55;;;;;;;;;;1042214;28;20016;-79
2022/11/14 01:48:29;;;;;;;36.78;12.23;;;;;;;;;;1042702;28;20392;-76
2022/11/14 01:49:03;;;;;;;37.15;11.07;;;;;;;;;;1045042;28;20491;-78
2022/11/14 01:49:35;;;;;;;27.77;11.52;;;;;;;;;;1044065;28;20029;-79
2022/11/14 01:50:08;;;;;;;36.42;13.40;;;;;;;;;;1043615;28;20035;-79
2022/11/14 01:50:40;;;;;;;38.38;10.73;;;;;;;;;;1043903;28;20021;-75
2022/11/14 01:51:10;;;;;;;31.08;11.70;;;;;;;;;;1042610;28;20534;-82
2022/11/14 01:52:02;;;;;;;34.53;11.05;;;;;;;;;;1042744;28;20039;-76
2022/11/14 01:52:34;;;;;;;33.17;12.05;;;;;;;;;;1041854;28;20021;-78
2022/11/14 01:53:05;;;;;;;29.30;11.18;;;;;;;;;;1041156;28;20029;-76
2022/11/14 01:53:36;;;;;;;26.67;11.15;;;;;;;;;;1043020;28;20021;-77
2022/11/14 01:54:13;;;;;;;30.95;11.75;;;;;;;;;;1042613;28;20128;-77
2022/11/14 01:54:45;;;;;;;35.15;11.07;;;;;;;;;;1044720;28;20116;-79
2022/11/14 01:55:16;;;;;;;30.10;10.77;;;;;;;;;;1042606;28;20395;-79
2022/11/14 01:55:47;;;;;;;31.00;10.57;;;;;;;;;;1041119;28;20018;-79
2022/11/14 01:56:20;;;;;;;36.10;12.18;;;;;;;;;;1038144;28;20025;-79
2022/11/14 01:56:55;;;;;;;27.55;12.70;;;;;;;;;;1038151;28;20116;-79
2022/11/14 01:57:28;;;;;;;42.33;14.25;;;;;;;;;;1038674;28;20526;-80
2022/11/14 01:57:59;;;;;;;30.40;10.95;;;;;;;;;;1042246;28;20045;-79
2022/11/14 01:58:30;;;;;;;37.88;12.57;;;;;;;;;;1040345;28;20025;-79
2022/11/14 01:59:05;;;;;;;26.80;11.27;;;;;;;;;;1037581;28;20130;-80
2022/11/14 01:59:38;;;;;;;19.20;10.45;;;;;;;;;;1035152;28;20561;-78
2022/11/14 02:00:11;;;;;;;39.78;12.30;;;;;;;;;;1036564;28;20113;-80
2022/11/14 02:00:43;;;;;;;30.83;11.77;;;;;;;;;;1036283;28;20026;-79
2022/11/14 02:01:13;;;;;;;50.88;14.18;;;;;;;;;;1038943;28;20071;-77
2022/11/14 02:01:45;;;;;;;33.00;12.15;;;;;;;;;;1038851;28;20109;-76
2022/11/14 02:02:18;;;;;;;38.65;11.70;;;;;;;;;;1037099;28;20112;-76
2022/11/14 02:02:49;;;;;;;33.33;10.25;;;;;;;;;;1040722;28;20021;-77
2022/11/14 02:03:20;;;;;;;28.85;11.38;;;;;;;;;;1043135;28;20107;-78
2022/11/14 02:03:52;;;;;;;31.85;11.20;;;;;;;;;;1039286;28;20029;-77
2022/11/14 02:04:24;;;;;;;28.58;12.27;;;;;;;;;;1044855;28;20112;-78
2022/11/14 02:04:57;;;;;;;30.15;12.30;;;;;;;;;;1041608;28;20047;-80
2022/11/14 02:05:29;;;;;;;30.17;10.77;;;;;;;;;;1039600;28;20018;-76
2022/11/14 02:06:00;;;;;;;31.35;12.77;;;;;;;;;;1035808;28;20079;-77
2022/11/14 02:06:31;;;;;;;41.50;13.27;;;;;;;;;;1036143;28;20406;-77
2022/11/14 02:07:03;;;;;;;45.33;14.27;;;;;;;;;;1040387;28;20029;-78
2022/11/14 02:07:36;;;;;;;29.88;11.38;;;;;;;;;;1044278;28;20021;-77
2022/11/14 02:08:09;;;;;;;34.22;12.45;;;;;;;;;;1043890;28;20133;-81
2022/11/14 02:08:40;;;;;;;44.97;12.60;;;;;;;;;;1043852;28;20064;-77
2022/11/14 02:09:11;;;;;;;30.30;12.43;;;;;;;;;;1044053;28;20104;-75
2022/11/14 02:09:44;;;;;;;31.13;12.55;;;;;;;;;;1044316;28;20013;-76
2022/11/14 02:10:18;;;;;;;31.60;12.65;;;;;;;;;;1044210;28;20396;-77
2022/11/14 02:10:48;;;;;;;45.22;13.13;;;;;;;;;;1042458;28;20480;-76
2022/11/14 02:11:19;;;;;;;32.63;11.85;;;;;;;;;;1041930;28;20152;-76
2022/11/14 02:11:50;;;;;;;33.85;13.35;;;;;;;;;;1043678;28;20041;-76
2022/11/14 02:12:21;;;;;;;38.30;12.20;;;;;;;;;;1042057;28;20055;-76
2022/11/14 02:12:52;;;;;;;34.67;11.48;;;;;;;;;;1042833;28;20083;-76
2022/11/14 02:13:23;;;;;;;39.78;13.57;;;;;;;;;;1042839;28;20448;-76
2022/11/14 02:13:53;;;;;;;31.98;13.93;;;;;;;;;;1040515;28;20093;-77
2022/11/14 02:14:25;;;;;;;22.75;12.30;;;;;;;;;;1043543;28;20771;-76
2022/11/14 02:14:56;;;;;;;38.08;14.30;;;;;;;;;;1044328;28;20048;-78
2022/11/14 02:15:27;;;;;;;55.42;15.50;;;;;;;;;;1039932;28;20029;-78
2022/11/14 02:15:57;;;;;;;31.08;10.88;;;;;;;;;;1039647;28;20655;-76
2022/11/14 02:16:29;;;;;;;38.03;13.88;;;;;;;;;;1040244;28;20021;-77
2022/11/14 02:17:01;;;;;;;41.28;13.40;;;;;;;;;;1037845;28;20022;-78
2022/11/14 02:17:32;;;;;;;39.38;14.65;;;;;;;;;;1039956;28;20025;-78
2022/11/14 02:18:02;;;;;;;36.33;12.38;;;;;;;;;;1039347;28;20029;-78
2022/11/14 02:18:33;;;;;;;34.55;12.73;;;;;;;;;;1041000;28;20047;-77
2022/11/14 02:19:04;;;;;;;35.55;13.23;;;;;;;;;;1033811;28;20810;-77
2022/11/14 02:19:56;;;;;;;35.15;14.90;;;;;;;;;;1035224;28;20034;-78
2022/11/14 02:20:28;;;;;;;29.33;16.23;;;;;;;;;;1039551;28;20513;-80
2022/11/14 02:20:59;;;;;;;37.55;12.73;;;;;;;;;;1038719;28;20029;-79
2022/11/14 02:21:30;;;;;;;27.48;12.73;;;;;;;;;;1037379;28;20018;-79
2022/11/14 02:22:00;;;;;;;44.20;13.57;;;;;;;;;;1034298;28;20064;-79
2022/11/14 02:22:31;;;;;;;32.50;12.40;;;;;;;;;;1039543;28;20025;-80
2022/11/14 02:23:02;;;;;;;29.95;14.23;;;;;;;;;;1036925;28;20021;-80
2022/11/14 02:23:33;;;;;;;43.05;13.00;;;;;;;;;;1040506;28;20081;-78
2022/11/14 02:24:04;;;;;;;43.20;11.60;;;;;;;;;;1038983;28;20031;-78
2022/11/14 02:24:35;;;;;;;30.98;13.25;;;;;;;;;;1044423;28;20025;-79
2022/11/14 02:25:06;;;;;;;32.45;10.82;;;;;;;;;;1043016;28;20036;-78
2022/11/14 02:25:37;;;;;;;34.75;11.50;;;;;;;;;;1044259;28;20017;-79
2022/11/14 02:26:08;;;;;;;35.65;13.85;;;;;;;;;;1043679;28;20055;-79
2022/11/14 02:26:39;;;;;;;38.03;12.55;;;;;;;;;;1042497;28;20037;-78
2022/11/14 02:27:12;;;;;;;39.17;12.68;;;;;;;;;;1044171;28;20025;-79
2022/11/14 02:27:43;;;;;;;35.38;11.85;;;;;;;;;;1040541;28;20497;-79
2022/11/14 02:28:14;;;;;;;30.58;11.70;;;;;;;;;;1041773;28;20056;-79
2022/11/14 02:28:48;;;;;;;40.45;12.60;;;;;;;;;;1039147;28;20033;-78
2022/11/14 02:29:19;;;;;;;42.40;13.32;;;;;;;;;;1039240;28;20026;-77
2022/11/14 02:29:49;;;;;;;32.45;12.82;;;;;;;;;;1040066;28;20033;-78
2022/11/14 02:30:21;;;;;;;37.75;13.50;;;;;;;;;;1039281;28;20044;-77
2022/11/14 02:30:52;;;;;;;39.50;13.02;;;;;;;;;;1039072;28;20047;-77
2022/11/14 02:31:23;;;;;;;32.50;12.07;;;;;;;;;;1040562;28;20083;-78
2022/11/14 02:31:54;;;;;;;43.10;14.60;;;;;;;;;;1043027;28;20583;-77
2022/11/14 02:32:25;;;;;;;33.90;14.00;;;;;;;;;;1045227;28;20092;-78
2022/11/14 02:32:56;;;;;;;38.78;12.63;;;;;;;;;;1044356;28;20488;-78
2022/11/14 02:33:27;;;;;;;43.95;12.60;;;;;;;;;;1043486;28;20025;-78
2022/11/14 02:33:57;;;;;;;39.22;15.52;;;;;;;;;;1043783;28;20040;-77
2022/11/14 02:34:30;;;;;;;25.98;10.65;;;;;;;;;;1046275;28;20017;-78
2022/11/14 02:35:01;;;;;;;35.92;13.95;;;;;;;;;;1044604;28;20025;-78
2022/11/14 02:35:32;;;;;;;34.97;11.18;;;;;;;;;;1046449;28;20009;-79
2022/11/14 02:36:02;;;;;;;36.67;12.45;;;;;;;;;;1045961;28;20086;-77
2022/11/14 02:36:34;;;;;;;30.67;10.65;;;;;;;;;;1046363;28;20025;-78
2022/11/14 02:37:06;;;;;;;39.80;11.98;;;;;;;;;;1045913;28;20112;-77
2022/11/14 02:37:37;;;;;;;28.75;11.55;;;;;;;;;;1040457;28;20421;-76
2022/11/14 02:38:13;;;;;;;33.28;12.60;;;;;;;;;;1041836;28;20113;-87
2022/11/14 02:38:44;;;;;;;25.35;10.55;;;;;;;;;;1040528;28;20029;-77
2022/11/14 02:39:14;;;;;;;25.55;11.82;;;;;;;;;;1043574;28;20032;-76
2022/11/14 02:39:45;;;;;;;27.75;11.95;;;;;;;;;;1043099;28;20040;-77
2022/11/14 02:40:17;;;;;;;30.35;11.98;;;;;;;;;;1043371;28;20021;-77
2022/11/14 02:40:47;;;;;;;23.67;10.80;;;;;;;;;;1044282;28;20531;-78
2022/11/14 02:41:18;;;;;;;44.35;13.15;;;;;;;;;;1037060;28;20673;-78
2022/11/14 02:41:49;;;;;;;27.33;12.82;;;;;;;;;;1038456;28;20078;-77
2022/11/14 02:42:20;;;;;;;45.88;12.43;;;;;;;;;;1039644;28;20508;-77
2022/11/14 02:42:50;;;;;;;34.63;12.35;;;;;;;;;;1037964;28;20452;-78
2022/11/14 02:43:21;;;;;;;45.38;12.75;;;;;;;;;;1038023;28;20036;-80
2022/11/14 02:43:53;;;;;;;34.60;13.68;;;;;;;;;;1033526;28;20029;-78
2022/11/14 02:44:24;;;;;;;58.60;18.38;;;;;;;;;;1031911;28;20018;-78
2022/11/14 02:44:55;;;;;;;40.25;11.48;;;;;;;;;;1036745;28;20033;-79
2022/11/14 02:45:26;;;;;;;35.40;13.68;;;;;;;;;;1039404;28;20021;-78
2022/11/14 02:45:57;;;;;;;34.53;13.00;;;;;;;;;;1040607;28;20453;-78
2022/11/14 02:46:27;;;;;;;55.33;14.23;;;;;;;;;;1034617;28;20025;-79
2022/11/14 02:46:58;;;;;;;31.65;11.88;;;;;;;;;;1039436;28;20098;-79
2022/11/14 02:47:28;;;;;;;36.40;12.52;;;;;;;;;;1036129;28;20076;-79
2022/11/14 02:47:59;;;;;;;28.20;11.80;;;;;;;;;;1039663;28;20025;-78
2022/11/14 02:48:30;;;;;;;31.98;12.20;;;;;;;;;;1038791;28;20029;-78
2022/11/14 02:49:00;;;;;;;34.33;12.73;;;;;;;;;;1038877;28;20774;-78
2022/11/14 02:49:31;;;;;;;51.95;13.93;;;;;;;;;;1040593;28;20025;-79
2022/11/14 02:50:03;;;;;;;50.88;14.90;;;;;;;;;;1044723;28;20020;-78
2022/11/14 02:50:35;;;;;;;35.92;10.95;;;;;;;;;;1044071;28;20053;-78
2022/11/14 02:51:05;;;;;;;34.35;13.68;;;;;;;;;;1043741;28;20063;-79
2022/11/14 02:51:36;;;;;;;28.60;11.93;;;;;;;;;;1038230;28;20038;-81
2022/11/14 02:52:07;;;;;;;33.97;13.68;;;;;;;;;;1040258;28;20408;-80
2022/11/14 02:52:38;;;;;;;40.60;14.25;;;;;;;;;;1040563;28;20151;-80
2022/11/14 02:53:09;;;;;;;51.45;12.55;;;;;;;;;;1039176;28;20112;-80
2022/11/14 02:53:45;;;;;;;28.27;10.85;;;;;;;;;;1043028;28;20415;-80
2022/11/14 02:54:18;;;;;;;44.03;13.27;;;;;;;;;;1041279;28;20013;-83
2022/11/14 02:54:48;;;;;;;35.67;13.07;;;;;;;;;;1044536;23;20463;-78
2022/11/14 02:55:20;;;;;;;38.53;11.73;;;;;;;;;;1035986;28;20576;-77
2022/11/14 02:55:50;;;;;;;33.03;13.90;;;;;;;;;;1035710;28;20087;-77
2022/11/14 02:56:21;;;;;;;32.35;12.20;;;;;;;;;;1033537;28;20033;-77
2022/11/14 02:56:52;;;;;;;30.95;13.18;;;;;;;;;;1034082;28;20516;-77
2022/11/14 02:57:22;;;;;;;37.42;13.45;;;;;;;;;;1033574;28;20055;-76
2022/11/14 02:57:53;;;;;;;37.35;13.90;;;;;;;;;;1036662;28;20489;-77
2022/11/14 02:58:23;;;;;;;26.00;11.18;;;;;;;;;;1036124;28;20101;-78
2022/11/14 02:58:54;;;;;;;28.23;12.35;;;;;;;;;;1037117;28;20125;-77
2022/11/14 02:59:25;;;;;;;28.45;12.65;;;;;;;;;;1035204;28;20124;-77
2022/11/14 02:59:56;;;;;;;38.20;11.40;;;;;;;;;;1030175;28;20560;-78
2022/11/14 03:00:27;;;;;;;24.98;10.85;;;;;;;;;;1031278;28;20030;-77
2022/11/14 03:00:58;;;;;;;43.28;11.70;;;;;;;;;;1030299;28;20569;-77
2022/11/14 03:01:29;;;;;;;29.40;12.98;;;;;;;;;;1030918;28;20101;-76
2022/11/14 03:01:59;;;;;;;24.27;11.48;;;;;;;;;;1032340;28;20030;-77
2022/11/14 03:02:30;;;;;;;41.22;10.57;;;;;;;;;;1032340;28;20030;-77
2022/11/14 03:03:01;;;;;;;35.95;11.07;;;;;;;;;;1030781;28;20037;-77